sensor_id;sensor_type;location;lat;lon;timestamp;P1;durP1;ratioP1;P2;durP2;ratioP2
10596;SDS011;5346;48.766;8.674;2022-07-06T00:00:58;4.07;;;1.88;;
10596;SDS011;5346;48.766;8.674;2022-07-06T00:03:41;3.00;;;2.10;;
10596;SDS011;5346;48.766;8.674;2022-07-06T00:06:25;2.00;;;1.80;;
10596;SDS011;5346;48.766;8.674;2022-07-06T00:08:59;6.13;;;1.90;;
10596;SDS011;5346;48.766;8.674;2022-07-06T00:11:27;3.67;;;2.05;;
10596;SDS011;5346;48.766;8.674;2022-07-06T00:13:55;4.35;;;2.00;;
10596;SDS011;5346;48.766;8.674;2022-07-06T00:16:30;4.32;;;1.92;;
10596;SDS011;5346;48.766;8.674;2022-07-06T00:19:01;2.13;;;1.70;;
10596;SDS011;5346;48.766;8.674;2022-07-06T00:21:31;4.72;;;2.17;;
10596;SDS011;5346;48.766;8.674;2022-07-06T00:24:07;2.05;;;1.73;;
10596;SDS011;5346;48.766;8.674;2022-07-06T00:26:35;5.57;;;2.05;;
10596;SDS011;5346;48.766;8.674;2022-07-06T00:29:04;3.53;;;1.80;;
10596;SDS011;5346;48.766;8.674;2022-07-06T00:31:41;5.93;;;1.95;;
10596;SDS011;5346;48.766;8.674;2022-07-06T00:34:11;5.88;;;1.95;;
10596;SDS011;5346;48.766;8.674;2022-07-06T00:36:39;2.00;;;1.80;;
10596;SDS011;5346;48.766;8.674;2022-07-06T00:39:13;2.65;;;1.75;;
10596;SDS011;5346;48.766;8.674;2022-07-06T00:41:44;5.30;;;2.15;;
10596;SDS011;5346;48.766;8.674;2022-07-06T00:44:13;7.93;;;1.98;;
10596;SDS011;5346;48.766;8.674;2022-07-06T00:46:47;4.60;;;2.10;;
10596;SDS011;5346;48.766;8.674;2022-07-06T00:49:15;5.00;;;1.90;;
10596;SDS011;5346;48.766;8.674;2022-07-06T00:52:07;2.40;;;2.05;;
10596;SDS011;5346;48.766;8.674;2022-07-06T00:54:35;2.83;;;1.60;;
10596;SDS011;5346;48.766;8.674;2022-07-06T00:57:14;4.22;;;1.90;;
10596;SDS011;5346;48.766;8.674;2022-07-06T00:59:42;1.88;;;1.65;;
10596;SDS011;5346;48.766;8.674;2022-07-06T01:02:09;2.55;;;2.00;;
10596;SDS011;5346;48.766;8.674;2022-07-06T01:04:55;4.35;;;2.10;;
10596;SDS011;5346;48.766;8.674;2022-07-06T01:07:28;2.13;;;1.92;;
10596;SDS011;5346;48.766;8.674;2022-07-06T01:10:04;3.65;;;2.30;;
10596;SDS011;5346;48.766;8.674;2022-07-06T01:12:34;3.70;;;2.10;;
10596;SDS011;5346;48.766;8.674;2022-07-06T01:15:06;4.93;;;2.10;;
10596;SDS011;5346;48.766;8.674;2022-07-06T01:17:46;4.72;;;2.17;;
10596;SDS011;5346;48.766;8.674;2022-07-06T01:20:18;2.83;;;2.08;;
10596;SDS011;5346;48.766;8.674;2022-07-06T01:22:58;5.03;;;2.35;;
10596;SDS011;5346;48.766;8.674;2022-07-06T01:25:26;6.32;;;2.30;;
10596;SDS011;5346;48.766;8.674;2022-07-06T01:27:54;5.25;;;2.40;;
10596;SDS011;5346;48.766;8.674;2022-07-06T01:30:28;2.53;;;2.15;;
10596;SDS011;5346;48.766;8.674;2022-07-06T01:32:56;5.95;;;2.20;;
10596;SDS011;5346;48.766;8.674;2022-07-06T01:35:26;6.65;;;2.30;;
10596;SDS011;5346;48.766;8.674;2022-07-06T01:38:05;5.55;;;2.30;;
10596;SDS011;5346;48.766;8.674;2022-07-06T01:40:37;6.57;;;2.90;;
10596;SDS011;5346;48.766;8.674;2022-07-06T01:43:12;3.45;;;2.53;;
10596;SDS011;5346;48.766;8.674;2022-07-06T01:45:39;6.28;;;2.72;;
10596;SDS011;5346;48.766;8.674;2022-07-06T01:48:11;4.32;;;2.60;;
10596;SDS011;5346;48.766;8.674;2022-07-06T01:50:49;4.88;;;2.58;;
10596;SDS011;5346;48.766;8.674;2022-07-06T01:53:24;6.82;;;3.10;;
10596;SDS011;5346;48.766;8.674;2022-07-06T01:56:02;7.18;;;2.50;;
10596;SDS011;5346;48.766;8.674;2022-07-06T01:58:30;7.45;;;2.80;;
10596;SDS011;5346;48.766;8.674;2022-07-06T02:01:00;7.63;;;3.50;;
10596;SDS011;5346;48.766;8.674;2022-07-06T02:03:42;6.60;;;3.05;;
10596;SDS011;5346;48.766;8.674;2022-07-06T02:06:24;5.57;;;2.88;;
10596;SDS011;5346;48.766;8.674;2022-07-06T02:09:01;4.32;;;3.30;;
10596;SDS011;5346;48.766;8.674;2022-07-06T02:11:31;5.07;;;2.97;;
10596;SDS011;5346;48.766;8.674;2022-07-06T02:14:10;4.75;;;3.20;;
10596;SDS011;5346;48.766;8.674;2022-07-06T02:16:37;4.20;;;3.35;;
10596;SDS011;5346;48.766;8.674;2022-07-06T02:19:14;6.57;;;3.38;;
10596;SDS011;5346;48.766;8.674;2022-07-06T02:21:44;5.03;;;3.72;;
10596;SDS011;5346;48.766;8.674;2022-07-06T02:24:11;7.65;;;3.58;;
10596;SDS011;5346;48.766;8.674;2022-07-06T02:26:48;5.72;;;3.55;;
10596;SDS011;5346;48.766;8.674;2022-07-06T02:29:18;6.15;;;3.78;;
10596;SDS011;5346;48.766;8.674;2022-07-06T02:31:48;8.70;;;3.38;;
10596;SDS011;5346;48.766;8.674;2022-07-06T02:34:23;3.95;;;3.38;;
10596;SDS011;5346;48.766;8.674;2022-07-06T02:36:52;4.13;;;3.70;;
10596;SDS011;5346;48.766;8.674;2022-07-06T02:39:22;7.47;;;4.30;;
10596;SDS011;5346;48.766;8.674;2022-07-06T02:42:00;4.68;;;3.90;;
10596;SDS011;5346;48.766;8.674;2022-07-06T02:44:28;7.75;;;4.55;;
10596;SDS011;5346;48.766;8.674;2022-07-06T02:47:06;5.05;;;4.47;;
10596;SDS011;5346;48.766;8.674;2022-07-06T02:49:33;5.72;;;4.30;;
10596;SDS011;5346;48.766;8.674;2022-07-06T02:52:15;6.03;;;4.32;;
10596;SDS011;5346;48.766;8.674;2022-07-06T02:54:43;7.90;;;4.57;;
10596;SDS011;5346;48.766;8.674;2022-07-06T02:57:10;8.25;;;5.30;;
10596;SDS011;5346;48.766;8.674;2022-07-06T02:59:44;7.82;;;4.82;;
10596;SDS011;5346;48.766;8.674;2022-07-06T03:02:12;13.90;;;5.82;;
10596;SDS011;5346;48.766;8.674;2022-07-06T03:04:39;6.35;;;4.72;;
10596;SDS011;5346;48.766;8.674;2022-07-06T03:07:13;6.05;;;4.97;;
10596;SDS011;5346;48.766;8.674;2022-07-06T03:09:41;6.32;;;5.72;;
10596;SDS011;5346;48.766;8.674;2022-07-06T03:12:08;7.78;;;5.28;;
10596;SDS011;5346;48.766;8.674;2022-07-06T03:14:43;11.15;;;6.18;;
10596;SDS011;5346;48.766;8.674;2022-07-06T03:17:11;11.65;;;5.55;;
10596;SDS011;5346;48.766;8.674;2022-07-06T03:19:39;10.38;;;5.60;;
10596;SDS011;5346;48.766;8.674;2022-07-06T03:22:13;8.70;;;5.75;;
10596;SDS011;5346;48.766;8.674;2022-07-06T03:24:41;10.82;;;5.70;;
10596;SDS011;5346;48.766;8.674;2022-07-06T03:27:11;8.15;;;6.10;;
10596;SDS011;5346;48.766;8.674;2022-07-06T03:29:45;6.53;;;5.10;;
10596;SDS011;5346;48.766;8.674;2022-07-06T03:32:13;8.50;;;5.15;;
10596;SDS011;5346;48.766;8.674;2022-07-06T03:34:41;10.02;;;5.65;;
10596;SDS011;5346;48.766;8.674;2022-07-06T03:37:17;9.50;;;5.60;;
10596;SDS011;5346;48.766;8.674;2022-07-06T03:39:45;9.15;;;5.47;;
10596;SDS011;5346;48.766;8.674;2022-07-06T03:42:14;7.28;;;5.60;;
10596;SDS011;5346;48.766;8.674;2022-07-06T03:44:48;7.50;;;6.13;;
10596;SDS011;5346;48.766;8.674;2022-07-06T03:47:16;7.30;;;5.63;;
10596;SDS011;5346;48.766;8.674;2022-07-06T03:49:45;8.88;;;5.82;;
10596;SDS011;5346;48.766;8.674;2022-07-06T03:52:19;6.80;;;6.10;;
10596;SDS011;5346;48.766;8.674;2022-07-06T03:54:47;9.93;;;6.00;;
10596;SDS011;5346;48.766;8.674;2022-07-06T03:57:14;8.32;;;6.28;;
10596;SDS011;5346;48.766;8.674;2022-07-06T03:59:49;6.82;;;6.10;;
10596;SDS011;5346;48.766;8.674;2022-07-06T04:02:19;8.88;;;6.70;;
10596;SDS011;5346;48.766;8.674;2022-07-06T04:04:48;10.52;;;7.68;;
10596;SDS011;5346;48.766;8.674;2022-07-06T04:07:27;15.02;;;7.07;;
10596;SDS011;5346;48.766;8.674;2022-07-06T04:09:54;8.93;;;8.02;;
10596;SDS011;5346;48.766;8.674;2022-07-06T04:12:22;6.85;;;6.13;;
10596;SDS011;5346;48.766;8.674;2022-07-06T04:15:01;8.77;;;6.40;;
10596;SDS011;5346;48.766;8.674;2022-07-06T04:17:28;10.50;;;7.03;;
10596;SDS011;5346;48.766;8.674;2022-07-06T04:20:22;8.10;;;6.47;;
10596;SDS011;5346;48.766;8.674;2022-07-06T04:22:58;12.27;;;7.47;;
10596;SDS011;5346;48.766;8.674;2022-07-06T04:25:33;12.90;;;6.57;;
10596;SDS011;5346;48.766;8.674;2022-07-06T04:28:01;10.40;;;6.35;;
10596;SDS011;5346;48.766;8.674;2022-07-06T04:30:32;8.43;;;6.50;;
10596;SDS011;5346;48.766;8.674;2022-07-06T04:33:06;9.77;;;5.95;;
10596;SDS011;5346;48.766;8.674;2022-07-06T04:35:34;8.50;;;5.57;;
10596;SDS011;5346;48.766;8.674;2022-07-06T04:38:02;13.50;;;6.20;;
10596;SDS011;5346;48.766;8.674;2022-07-06T04:40:38;8.35;;;6.40;;
10596;SDS011;5346;48.766;8.674;2022-07-06T04:43:06;8.10;;;6.03;;
10596;SDS011;5346;48.766;8.674;2022-07-06T04:45:35;7.95;;;5.70;;
10596;SDS011;5346;48.766;8.674;2022-07-06T04:48:10;8.50;;;5.53;;
10596;SDS011;5346;48.766;8.674;2022-07-06T04:50:38;7.10;;;6.40;;
10596;SDS011;5346;48.766;8.674;2022-07-06T04:53:06;7.07;;;5.18;;
10596;SDS011;5346;48.766;8.674;2022-07-06T04:55:39;9.05;;;6.03;;
10596;SDS011;5346;48.766;8.674;2022-07-06T04:58:07;8.23;;;5.75;;
10596;SDS011;5346;48.766;8.674;2022-07-06T05:00:37;8.55;;;5.55;;
10596;SDS011;5346;48.766;8.674;2022-07-06T05:03:28;6.72;;;6.03;;
10596;SDS011;5346;48.766;8.674;2022-07-06T05:06:12;7.68;;;5.47;;
10596;SDS011;5346;48.766;8.674;2022-07-06T05:08:46;7.47;;;5.53;;
10596;SDS011;5346;48.766;8.674;2022-07-06T05:11:19;8.68;;;5.03;;
10596;SDS011;5346;48.766;8.674;2022-07-06T05:13:53;7.72;;;5.28;;
10596;SDS011;5346;48.766;8.674;2022-07-06T05:16:23;6.55;;;4.47;;
10596;SDS011;5346;48.766;8.674;2022-07-06T05:18:57;6.70;;;5.13;;
10596;SDS011;5346;48.766;8.674;2022-07-06T05:21:31;6.68;;;5.10;;
10596;SDS011;5346;48.766;8.674;2022-07-06T05:23:59;6.72;;;4.43;;
10596;SDS011;5346;48.766;8.674;2022-07-06T05:26:29;11.90;;;4.60;;
10596;SDS011;5346;48.766;8.674;2022-07-06T05:29:03;7.80;;;4.35;;
10596;SDS011;5346;48.766;8.674;2022-07-06T05:31:31;7.93;;;4.18;;
10596;SDS011;5346;48.766;8.674;2022-07-06T05:33:58;6.28;;;4.40;;
10596;SDS011;5346;48.766;8.674;2022-07-06T05:36:33;11.57;;;4.70;;
10596;SDS011;5346;48.766;8.674;2022-07-06T05:39:01;7.10;;;4.32;;
10596;SDS011;5346;48.766;8.674;2022-07-06T05:41:29;5.13;;;4.43;;
10596;SDS011;5346;48.766;8.674;2022-07-06T05:44:05;5.95;;;3.75;;
10596;SDS011;5346;48.766;8.674;2022-07-06T05:46:33;6.78;;;4.20;;
10596;SDS011;5346;48.766;8.674;2022-07-06T05:49:02;6.18;;;4.28;;
10596;SDS011;5346;48.766;8.674;2022-07-06T05:51:55;7.95;;;4.20;;
10596;SDS011;5346;48.766;8.674;2022-07-06T05:54:23;3.58;;;3.20;;
10596;SDS011;5346;48.766;8.674;2022-07-06T05:56:53;7.05;;;3.97;;
10596;SDS011;5346;48.766;8.674;2022-07-06T05:59:27;7.30;;;3.50;;
10596;SDS011;5346;48.766;8.674;2022-07-06T06:01:55;6.03;;;3.97;;
10596;SDS011;5346;48.766;8.674;2022-07-06T06:04:25;7.28;;;4.15;;
10596;SDS011;5346;48.766;8.674;2022-07-06T06:07:00;4.30;;;3.40;;
10596;SDS011;5346;48.766;8.674;2022-07-06T06:09:34;5.65;;;3.45;;
10596;SDS011;5346;48.766;8.674;2022-07-06T06:12:11;4.13;;;3.30;;
10596;SDS011;5346;48.766;8.674;2022-07-06T06:14:42;5.32;;;3.60;;
10596;SDS011;5346;48.766;8.674;2022-07-06T06:17:17;6.32;;;3.80;;
10596;SDS011;5346;48.766;8.674;2022-07-06T06:19:47;7.47;;;3.63;;
10596;SDS011;5346;48.766;8.674;2022-07-06T06:22:15;5.25;;;3.58;;
10596;SDS011;5346;48.766;8.674;2022-07-06T06:24:49;7.97;;;3.78;;
10596;SDS011;5346;48.766;8.674;2022-07-06T06:27:20;8.18;;;3.60;;
10596;SDS011;5346;48.766;8.674;2022-07-06T06:29:47;10.55;;;3.58;;
10596;SDS011;5346;48.766;8.674;2022-07-06T06:32:21;6.07;;;3.58;;
10596;SDS011;5346;48.766;8.674;2022-07-06T06:34:49;4.63;;;3.53;;
10596;SDS011;5346;48.766;8.674;2022-07-06T06:37:19;4.43;;;3.47;;
10596;SDS011;5346;48.766;8.674;2022-07-06T06:39:55;4.78;;;2.97;;
10596;SDS011;5346;48.766;8.674;2022-07-06T06:42:26;6.85;;;3.67;;
10596;SDS011;5346;48.766;8.674;2022-07-06T06:45:00;8.05;;;3.80;;
10596;SDS011;5346;48.766;8.674;2022-07-06T06:47:28;5.63;;;3.15;;
10596;SDS011;5346;48.766;8.674;2022-07-06T06:49:55;5.65;;;3.05;;
10596;SDS011;5346;48.766;8.674;2022-07-06T06:52:30;6.18;;;3.70;;
10596;SDS011;5346;48.766;8.674;2022-07-06T06:55:06;4.95;;;3.08;;
10596;SDS011;5346;48.766;8.674;2022-07-06T06:57:41;5.85;;;3.20;;
10596;SDS011;5346;48.766;8.674;2022-07-06T07:00:09;5.20;;;3.10;;
10596;SDS011;5346;48.766;8.674;2022-07-06T07:02:37;7.53;;;2.85;;
10596;SDS011;5346;48.766;8.674;2022-07-06T07:05:18;5.18;;;2.83;;
10596;SDS011;5346;48.766;8.674;2022-07-06T07:07:45;7.80;;;3.10;;
10596;SDS011;5346;48.766;8.674;2022-07-06T07:10:29;3.83;;;3.05;;
10596;SDS011;5346;48.766;8.674;2022-07-06T07:13:03;5.10;;;2.65;;
10596;SDS011;5346;48.766;8.674;2022-07-06T07:15:37;5.45;;;3.00;;
10596;SDS011;5346;48.766;8.674;2022-07-06T07:18:05;4.85;;;2.72;;
10596;SDS011;5346;48.766;8.674;2022-07-06T07:20:41;3.00;;;2.70;;
10596;SDS011;5346;48.766;8.674;2022-07-06T07:23:15;4.65;;;3.13;;
10596;SDS011;5346;48.766;8.674;2022-07-06T07:25:43;4.95;;;2.97;;
10596;SDS011;5346;48.766;8.674;2022-07-06T07:28:10;5.18;;;2.78;;
10596;SDS011;5346;48.766;8.674;2022-07-06T07:30:44;6.50;;;3.35;;
10596;SDS011;5346;48.766;8.674;2022-07-06T07:33:13;3.30;;;2.53;;
10596;SDS011;5346;48.766;8.674;2022-07-06T07:35:43;5.50;;;3.10;;
10596;SDS011;5346;48.766;8.674;2022-07-06T07:38:20;4.65;;;2.95;;
10596;SDS011;5346;48.766;8.674;2022-07-06T07:40:48;3.40;;;2.78;;
10596;SDS011;5346;48.766;8.674;2022-07-06T07:43:16;4.15;;;3.10;;
10596;SDS011;5346;48.766;8.674;2022-07-06T07:45:51;7.35;;;3.05;;
10596;SDS011;5346;48.766;8.674;2022-07-06T07:48:20;5.55;;;3.22;;
10596;SDS011;5346;48.766;8.674;2022-07-06T07:50:51;3.45;;;2.95;;
10596;SDS011;5346;48.766;8.674;2022-07-06T07:53:25;2.58;;;2.38;;
10596;SDS011;5346;48.766;8.674;2022-07-06T07:55:53;7.35;;;3.25;;
10596;SDS011;5346;48.766;8.674;2022-07-06T07:58:20;5.35;;;3.53;;
10596;SDS011;5346;48.766;8.674;2022-07-06T08:00:54;5.03;;;2.78;;
10596;SDS011;5346;48.766;8.674;2022-07-06T08:03:22;8.93;;;3.35;;
10596;SDS011;5346;48.766;8.674;2022-07-06T08:05:50;4.45;;;2.95;;
10596;SDS011;5346;48.766;8.674;2022-07-06T08:08:24;7.28;;;2.85;;
10596;SDS011;5346;48.766;8.674;2022-07-06T08:10:56;4.47;;;2.92;;
10596;SDS011;5346;48.766;8.674;2022-07-06T08:13:43;6.65;;;2.80;;
10596;SDS011;5346;48.766;8.674;2022-07-06T08:16:17;5.53;;;3.05;;
10596;SDS011;5346;48.766;8.674;2022-07-06T08:18:48;5.05;;;3.08;;
10596;SDS011;5346;48.766;8.674;2022-07-06T08:21:15;5.68;;;3.10;;
10596;SDS011;5346;48.766;8.674;2022-07-06T08:23:54;7.05;;;3.22;;
10596;SDS011;5346;48.766;8.674;2022-07-06T08:26:22;9.23;;;3.22;;
10596;SDS011;5346;48.766;8.674;2022-07-06T08:29:00;4.68;;;2.80;;
10596;SDS011;5346;48.766;8.674;2022-07-06T08:31:27;6.18;;;2.92;;
10596;SDS011;5346;48.766;8.674;2022-07-06T08:34:15;5.47;;;3.05;;
10596;SDS011;5346;48.766;8.674;2022-07-06T08:36:59;7.63;;;3.90;;
10596;SDS011;5346;48.766;8.674;2022-07-06T08:39:26;6.20;;;3.50;;
10596;SDS011;5346;48.766;8.674;2022-07-06T08:42:06;4.25;;;3.47;;
10596;SDS011;5346;48.766;8.674;2022-07-06T08:44:36;5.45;;;3.60;;
10596;SDS011;5346;48.766;8.674;2022-07-06T08:47:05;4.15;;;3.33;;
10596;SDS011;5346;48.766;8.674;2022-07-06T08:49:40;4.45;;;3.55;;
10596;SDS011;5346;48.766;8.674;2022-07-06T08:52:10;9.45;;;3.45;;
10596;SDS011;5346;48.766;8.674;2022-07-06T08:54:40;8.00;;;3.50;;
10596;SDS011;5346;48.766;8.674;2022-07-06T08:57:14;5.13;;;3.30;;
10596;SDS011;5346;48.766;8.674;2022-07-06T08:59:43;8.88;;;3.15;;
10596;SDS011;5346;48.766;8.674;2022-07-06T09:02:11;6.03;;;3.05;;
10596;SDS011;5346;48.766;8.674;2022-07-06T09:04:48;8.50;;;3.70;;
10596;SDS011;5346;48.766;8.674;2022-07-06T09:07:32;9.00;;;3.40;;
10596;SDS011;5346;48.766;8.674;2022-07-06T09:10:25;5.00;;;3.35;;
10596;SDS011;5346;48.766;8.674;2022-07-06T09:13:01;5.95;;;3.38;;
10596;SDS011;5346;48.766;8.674;2022-07-06T09:15:45;7.78;;;3.42;;
10596;SDS011;5346;48.766;8.674;2022-07-06T09:18:27;8.40;;;3.47;;
10596;SDS011;5346;48.766;8.674;2022-07-06T09:21:11;5.15;;;3.10;;
10596;SDS011;5346;48.766;8.674;2022-07-06T09:23:56;11.13;;;3.90;;
10596;SDS011;5346;48.766;8.674;2022-07-06T09:26:32;4.50;;;2.95;;
10596;SDS011;5346;48.766;8.674;2022-07-06T09:29:03;3.88;;;2.90;;
10596;SDS011;5346;48.766;8.674;2022-07-06T09:31:39;4.93;;;3.45;;
10596;SDS011;5346;48.766;8.674;2022-07-06T09:34:21;7.47;;;3.20;;
10596;SDS011;5346;48.766;8.674;2022-07-06T09:36:56;5.50;;;3.88;;
10596;SDS011;5346;48.766;8.674;2022-07-06T09:39:27;7.03;;;3.30;;
10596;SDS011;5346;48.766;8.674;2022-07-06T09:41:56;4.95;;;3.05;;
10596;SDS011;5346;48.766;8.674;2022-07-06T09:44:32;5.35;;;3.35;;
10596;SDS011;5346;48.766;8.674;2022-07-06T09:47:09;6.88;;;3.50;;
10596;SDS011;5346;48.766;8.674;2022-07-06T09:49:47;7.18;;;4.30;;
10596;SDS011;5346;48.766;8.674;2022-07-06T09:52:14;9.77;;;3.42;;
10596;SDS011;5346;48.766;8.674;2022-07-06T09:54:56;5.15;;;3.60;;
10596;SDS011;5346;48.766;8.674;2022-07-06T09:57:24;7.13;;;3.88;;
10596;SDS011;5346;48.766;8.674;2022-07-06T09:59:56;6.38;;;2.95;;
10596;SDS011;5346;48.766;8.674;2022-07-06T10:02:32;6.68;;;3.60;;
10596;SDS011;5346;48.766;8.674;2022-07-06T10:05:06;4.47;;;3.25;;
10596;SDS011;5346;48.766;8.674;2022-07-06T10:07:40;11.60;;;4.10;;
10596;SDS011;5346;48.766;8.674;2022-07-06T10:10:11;9.20;;;4.22;;
10596;SDS011;5346;48.766;8.674;2022-07-06T10:12:39;5.50;;;3.17;;
10596;SDS011;5346;48.766;8.674;2022-07-06T10:15:22;7.47;;;3.53;;
10596;SDS011;5346;48.766;8.674;2022-07-06T10:17:55;4.88;;;3.85;;
10596;SDS011;5346;48.766;8.674;2022-07-06T10:20:31;8.57;;;3.88;;
10596;SDS011;5346;48.766;8.674;2022-07-06T10:23:03;10.02;;;3.95;;
10596;SDS011;5346;48.766;8.674;2022-07-06T10:25:39;6.40;;;3.78;;
10596;SDS011;5346;48.766;8.674;2022-07-06T10:28:07;8.00;;;4.10;;
10596;SDS011;5346;48.766;8.674;2022-07-06T10:30:50;8.18;;;4.03;;
10596;SDS011;5346;48.766;8.674;2022-07-06T10:33:18;5.80;;;3.30;;
10596;SDS011;5346;48.766;8.674;2022-07-06T10:35:54;6.70;;;3.40;;
10596;SDS011;5346;48.766;8.674;2022-07-06T10:38:30;5.72;;;3.17;;
10596;SDS011;5346;48.766;8.674;2022-07-06T10:41:03;5.57;;;3.58;;
10596;SDS011;5346;48.766;8.674;2022-07-06T10:43:43;6.93;;;3.25;;
10596;SDS011;5346;48.766;8.674;2022-07-06T10:46:15;5.82;;;2.95;;
10596;SDS011;5346;48.766;8.674;2022-07-06T10:48:51;6.60;;;2.97;;
10596;SDS011;5346;48.766;8.674;2022-07-06T10:51:24;8.77;;;3.42;;
10596;SDS011;5346;48.766;8.674;2022-07-06T10:54:05;7.70;;;3.47;;
10596;SDS011;5346;48.766;8.674;2022-07-06T10:56:44;4.78;;;3.17;;
10596;SDS011;5346;48.766;8.674;2022-07-06T10:59:19;5.30;;;2.72;;
10596;SDS011;5346;48.766;8.674;2022-07-06T11:04:49;4.78;;;3.20;;
10596;SDS011;5346;48.766;8.674;2022-07-06T11:07:23;5.47;;;3.30;;
10596;SDS011;5346;48.766;8.674;2022-07-06T11:10:01;6.10;;;3.58;;
10596;SDS011;5346;48.766;8.674;2022-07-06T11:12:29;6.55;;;2.97;;
10596;SDS011;5346;48.766;8.674;2022-07-06T11:14:56;6.10;;;3.10;;
10596;SDS011;5346;48.766;8.674;2022-07-06T11:17:37;4.07;;;3.05;;
10596;SDS011;5346;48.766;8.674;2022-07-06T11:20:10;5.43;;;2.90;;
10596;SDS011;5346;48.766;8.674;2022-07-06T11:22:50;6.60;;;2.75;;
10596;SDS011;5346;48.766;8.674;2022-07-06T11:25:17;11.80;;;3.42;;
10596;SDS011;5346;48.766;8.674;2022-07-06T11:27:45;6.00;;;3.42;;
10596;SDS011;5346;48.766;8.674;2022-07-06T11:30:20;4.35;;;2.65;;
10596;SDS011;5346;48.766;8.674;2022-07-06T11:32:48;7.53;;;3.30;;
10596;SDS011;5346;48.766;8.674;2022-07-06T11:35:23;7.80;;;2.95;;
10596;SDS011;5346;48.766;8.674;2022-07-06T11:37:59;4.57;;;2.75;;
10596;SDS011;5346;48.766;8.674;2022-07-06T11:40:47;3.95;;;2.72;;
10596;SDS011;5346;48.766;8.674;2022-07-06T11:43:28;6.50;;;2.58;;
10596;SDS011;5346;48.766;8.674;2022-07-06T11:45:59;8.60;;;3.38;;
10596;SDS011;5346;48.766;8.674;2022-07-06T11:48:30;6.45;;;2.72;;
10596;SDS011;5346;48.766;8.674;2022-07-06T11:51:05;5.75;;;3.10;;
10596;SDS011;5346;48.766;8.674;2022-07-06T11:53:35;5.88;;;3.38;;
10596;SDS011;5346;48.766;8.674;2022-07-06T11:56:03;6.18;;;3.30;;
10596;SDS011;5346;48.766;8.674;2022-07-06T11:58:39;6.57;;;3.03;;
10596;SDS011;5346;48.766;8.674;2022-07-06T12:01:11;5.65;;;3.13;;
10596;SDS011;5346;48.766;8.674;2022-07-06T12:03:45;8.82;;;3.10;;
10596;SDS011;5346;48.766;8.674;2022-07-06T12:06:21;3.60;;;2.65;;
10596;SDS011;5346;48.766;8.674;2022-07-06T12:08:58;3.88;;;2.58;;
10596;SDS011;5346;48.766;8.674;2022-07-06T12:11:31;4.97;;;2.75;;
10596;SDS011;5346;48.766;8.674;2022-07-06T12:14:13;5.85;;;2.80;;
10596;SDS011;5346;48.766;8.674;2022-07-06T12:16:48;5.70;;;2.80;;
10596;SDS011;5346;48.766;8.674;2022-07-06T12:19:23;5.38;;;2.92;;
10596;SDS011;5346;48.766;8.674;2022-07-06T12:21:51;4.55;;;2.80;;
10596;SDS011;5346;48.766;8.674;2022-07-06T12:24:22;3.83;;;2.42;;
10596;SDS011;5346;48.766;8.674;2022-07-06T12:27:12;5.07;;;2.63;;
10596;SDS011;5346;48.766;8.674;2022-07-06T12:29:44;2.97;;;2.40;;
10596;SDS011;5346;48.766;8.674;2022-07-06T12:32:21;3.47;;;2.35;;
10596;SDS011;5346;48.766;8.674;2022-07-06T12:35:04;4.35;;;2.60;;
10596;SDS011;5346;48.766;8.674;2022-07-06T12:37:54;4.18;;;2.75;;
10596;SDS011;5346;48.766;8.674;2022-07-06T12:40:26;4.40;;;2.78;;
10596;SDS011;5346;48.766;8.674;2022-07-06T12:43:00;8.30;;;2.80;;
10596;SDS011;5346;48.766;8.674;2022-07-06T12:45:30;3.63;;;2.40;;
10596;SDS011;5346;48.766;8.674;2022-07-06T12:47:59;5.75;;;2.33;;
10596;SDS011;5346;48.766;8.674;2022-07-06T12:50:35;5.30;;;2.80;;
10596;SDS011;5346;48.766;8.674;2022-07-06T12:53:22;9.73;;;3.00;;
10596;SDS011;5346;48.766;8.674;2022-07-06T12:56:12;4.85;;;2.53;;
10596;SDS011;5346;48.766;8.674;2022-07-06T12:58:56;6.22;;;2.50;;
10596;SDS011;5346;48.766;8.674;2022-07-06T13:01:37;3.53;;;2.20;;
10596;SDS011;5346;48.766;8.674;2022-07-06T13:04:14;2.85;;;2.17;;
10596;SDS011;5346;48.766;8.674;2022-07-06T13:06:47;4.97;;;2.33;;
10596;SDS011;5346;48.766;8.674;2022-07-06T13:09:21;4.35;;;1.90;;
10596;SDS011;5346;48.766;8.674;2022-07-06T13:11:55;4.53;;;2.33;;
10596;SDS011;5346;48.766;8.674;2022-07-06T13:14:23;3.38;;;2.00;;
10596;SDS011;5346;48.766;8.674;2022-07-06T13:16:53;3.00;;;2.53;;
10596;SDS011;5346;48.766;8.674;2022-07-06T13:19:35;4.68;;;2.22;;
10596;SDS011;5346;48.766;8.674;2022-07-06T13:22:05;4.53;;;2.03;;
10596;SDS011;5346;48.766;8.674;2022-07-06T13:24:40;3.83;;;2.10;;
10596;SDS011;5346;48.766;8.674;2022-07-06T13:27:08;3.47;;;2.03;;
10596;SDS011;5346;48.766;8.674;2022-07-06T13:29:39;4.57;;;2.20;;
10596;SDS011;5346;48.766;8.674;2022-07-06T13:32:12;3.13;;;2.35;;
10596;SDS011;5346;48.766;8.674;2022-07-06T13:34:40;3.85;;;2.42;;
10596;SDS011;5346;48.766;8.674;2022-07-06T13:37:08;3.08;;;1.90;;
10596;SDS011;5346;48.766;8.674;2022-07-06T13:39:42;2.70;;;1.92;;
10596;SDS011;5346;48.766;8.674;2022-07-06T13:42:10;2.15;;;1.95;;
10596;SDS011;5346;48.766;8.674;2022-07-06T13:44:42;5.50;;;2.30;;
10596;SDS011;5346;48.766;8.674;2022-07-06T13:47:21;5.05;;;2.05;;
10596;SDS011;5346;48.766;8.674;2022-07-06T13:49:51;3.45;;;2.08;;
10596;SDS011;5346;48.766;8.674;2022-07-06T13:52:25;2.63;;;2.10;;
10596;SDS011;5346;48.766;8.674;2022-07-06T13:54:53;3.78;;;1.90;;
10596;SDS011;5346;48.766;8.674;2022-07-06T13:57:27;4.40;;;2.13;;
10596;SDS011;5346;48.766;8.674;2022-07-06T14:00:07;2.30;;;1.77;;
10596;SDS011;5346;48.766;8.674;2022-07-06T14:02:35;6.60;;;2.63;;
10596;SDS011;5346;48.766;8.674;2022-07-06T14:05:06;3.08;;;2.20;;
10596;SDS011;5346;48.766;8.674;2022-07-06T14:07:41;3.25;;;2.25;;
10596;SDS011;5346;48.766;8.674;2022-07-06T14:10:10;2.17;;;1.90;;
10596;SDS011;5346;48.766;8.674;2022-07-06T14:12:38;3.40;;;2.20;;
10596;SDS011;5346;48.766;8.674;2022-07-06T14:15:14;6.18;;;2.20;;
10596;SDS011;5346;48.766;8.674;2022-07-06T14:17:44;2.17;;;1.90;;
10596;SDS011;5346;48.766;8.674;2022-07-06T14:20:14;3.05;;;2.05;;
10596;SDS011;5346;48.766;8.674;2022-07-06T14:22:49;5.82;;;2.00;;
10596;SDS011;5346;48.766;8.674;2022-07-06T14:25:16;2.90;;;1.92;;
10596;SDS011;5346;48.766;8.674;2022-07-06T14:27:44;5.20;;;2.10;;
10596;SDS011;5346;48.766;8.674;2022-07-06T14:30:22;3.28;;;1.90;;
10596;SDS011;5346;48.766;8.674;2022-07-06T14:32:50;3.60;;;1.77;;
10596;SDS011;5346;48.766;8.674;2022-07-06T14:35:17;2.72;;;1.70;;
10596;SDS011;5346;48.766;8.674;2022-07-06T14:37:51;2.15;;;1.95;;
10596;SDS011;5346;48.766;8.674;2022-07-06T14:40:19;3.78;;;1.65;;
10596;SDS011;5346;48.766;8.674;2022-07-06T14:42:50;3.95;;;1.70;;
10596;SDS011;5346;48.766;8.674;2022-07-06T14:45:26;8.05;;;1.60;;
10596;SDS011;5346;48.766;8.674;2022-07-06T14:48:01;4.30;;;2.03;;
10596;SDS011;5346;48.766;8.674;2022-07-06T14:50:41;3.40;;;1.77;;
10596;SDS011;5346;48.766;8.674;2022-07-06T14:53:12;2.17;;;1.60;;
10596;SDS011;5346;48.766;8.674;2022-07-06T14:55:47;1.92;;;1.60;;
10596;SDS011;5346;48.766;8.674;2022-07-06T14:58:16;2.38;;;1.48;;
10596;SDS011;5346;48.766;8.674;2022-07-06T15:00:45;2.30;;;1.50;;
10596;SDS011;5346;48.766;8.674;2022-07-06T15:03:24;2.47;;;1.63;;
10596;SDS011;5346;48.766;8.674;2022-07-06T15:06:01;3.08;;;1.80;;
10596;SDS011;5346;48.766;8.674;2022-07-06T15:08:55;6.85;;;1.98;;
10596;SDS011;5346;48.766;8.674;2022-07-06T15:11:31;3.15;;;1.70;;
10596;SDS011;5346;48.766;8.674;2022-07-06T15:14:05;3.47;;;1.70;;
10596;SDS011;5346;48.766;8.674;2022-07-06T15:16:35;5.13;;;1.90;;
10596;SDS011;5346;48.766;8.674;2022-07-06T15:19:07;2.30;;;1.55;;
10596;SDS011;5346;48.766;8.674;2022-07-06T15:21:43;1.90;;;1.75;;
10596;SDS011;5346;48.766;8.674;2022-07-06T15:24:13;2.15;;;1.77;;
10596;SDS011;5346;48.766;8.674;2022-07-06T15:26:51;4.38;;;1.77;;
10596;SDS011;5346;48.766;8.674;2022-07-06T15:29:19;4.85;;;1.70;;
10596;SDS011;5346;48.766;8.674;2022-07-06T15:31:46;1.73;;;1.60;;
10596;SDS011;5346;48.766;8.674;2022-07-06T15:34:24;4.28;;;1.80;;
10596;SDS011;5346;48.766;8.674;2022-07-06T15:36:51;4.35;;;1.80;;
10596;SDS011;5346;48.766;8.674;2022-07-06T15:39:29;4.13;;;1.67;;